sensor_id;sensor_type;location;lat;lon;timestamp;temperature;humidity
69281;SHT31;56392;51.082;17.080;2022-07-29T00:04:22;16.60;59.15
69281;SHT31;56392;51.082;17.080;2022-07-29T00:09:26;16.32;58.91
69281;SHT31;56392;51.082;17.080;2022-07-29T00:14:29;16.30;59.87
69281;SHT31;56392;51.082;17.080;2022-07-29T00:19:32;16.14;59.74
69281;SHT31;56392;51.082;17.080;2022-07-29T00:24:36;16.12;60.66
69281;SHT31;56392;51.082;17.080;2022-07-29T00:29:39;16.23;60.66
69281;SHT31;56392;51.082;17.080;2022-07-29T00:34:42;16.20;60.25
69281;SHT31;56392;51.082;17.080;2022-07-29T00:40:04;16.17;58.18
69281;SHT31;56392;51.082;17.080;2022-07-29T00:45:08;16.33;58.60
69281;SHT31;56392;51.082;17.080;2022-07-29T00:50:12;16.32;59.19
69281;SHT31;56392;51.082;17.080;2022-07-29T00:55:19;16.33;60.49
69281;SHT31;56392;51.082;17.080;2022-07-29T01:00:24;16.14;61.10
69281;SHT31;56392;51.082;17.080;2022-07-29T01:05:28;16.10;61.62
69281;SHT31;56392;51.082;17.080;2022-07-29T01:10:33;16.06;61.49
69281;SHT31;56392;51.082;17.080;2022-07-29T01:15:41;16.09;60.11
69281;SHT31;56392;51.082;17.080;2022-07-29T01:21:08;16.02;59.95
69281;SHT31;56392;51.082;17.080;2022-07-29T01:26:30;15.96;58.77
69281;SHT31;56392;51.082;17.080;2022-07-29T01:31:47;16.03;58.77
69281;SHT31;56392;51.082;17.080;2022-07-29T01:36:55;15.89;59.41
69281;SHT31;56392;51.082;17.080;2022-07-29T01:42:07;15.83;59.26
69281;SHT31;56392;51.082;17.080;2022-07-29T01:47:17;15.86;59.45
69281;SHT31;56392;51.082;17.080;2022-07-29T01:52:25;15.81;60.94
69281;SHT31;56392;51.082;17.080;2022-07-29T01:57:31;15.71;59.99
69281;SHT31;56392;51.082;17.080;2022-07-29T02:02:39;15.72;59.65
69281;SHT31;56392;51.082;17.080;2022-07-29T02:07:44;15.72;59.89
69281;SHT31;56392;51.082;17.080;2022-07-29T02:12:50;15.72;60.01
69281;SHT31;56392;51.082;17.080;2022-07-29T02:17:56;15.73;59.91
69281;SHT31;56392;51.082;17.080;2022-07-29T02:23:01;15.75;60.05
69281;SHT31;56392;51.082;17.080;2022-07-29T02:28:05;15.77;59.91
69281;SHT31;56392;51.082;17.080;2022-07-29T02:33:13;15.61;60.64
69281;SHT31;56392;51.082;17.080;2022-07-29T02:38:17;15.45;61.32
69281;SHT31;56392;51.082;17.080;2022-07-29T02:43:48;15.27;62.03
69281;SHT31;56392;51.082;17.080;2022-07-29T02:48:57;15.31;61.53
69281;SHT31;56392;51.082;17.080;2022-07-29T02:54:06;15.24;62.36
69281;SHT31;56392;51.082;17.080;2022-07-29T02:59:11;15.26;62.11
69281;SHT31;56392;51.082;17.080;2022-07-29T03:04:18;15.28;61.72
69281;SHT31;56392;51.082;17.080;2022-07-29T03:09:22;15.24;62.41
69281;SHT31;56392;51.082;17.080;2022-07-29T03:14:26;15.10;64.32
69281;SHT31;56392;51.082;17.080;2022-07-29T03:19:31;14.86;67.04
69281;SHT31;56392;51.082;17.080;2022-07-29T03:24:35;14.79;67.41
69281;SHT31;56392;51.082;17.080;2022-07-29T03:29:38;14.69;67.41
69281;SHT31;56392;51.082;17.080;2022-07-29T03:34:42;14.69;67.18
69281;SHT31;56392;51.082;17.080;2022-07-29T03:39:45;14.62;67.64
69281;SHT31;56392;51.082;17.080;2022-07-29T03:44:50;14.56;68.53
69281;SHT31;56392;51.082;17.080;2022-07-29T03:49:59;14.60;68.19
69281;SHT31;56392;51.082;17.080;2022-07-29T03:55:02;14.66;68.13
69281;SHT31;56392;51.082;17.080;2022-07-29T04:00:07;14.68;67.99
69281;SHT31;56392;51.082;17.080;2022-07-29T04:05:13;14.72;68.05
69281;SHT31;56392;51.082;17.080;2022-07-29T04:10:16;14.83;68.03
69281;SHT31;56392;51.082;17.080;2022-07-29T04:15:20;14.75;68.90
69281;SHT31;56392;51.082;17.080;2022-07-29T04:20:23;14.72;70.72
69281;SHT31;56392;51.082;17.080;2022-07-29T04:25:26;14.86;69.22
69281;SHT31;56392;51.082;17.080;2022-07-29T04:30:30;15.08;67.33
69281;SHT31;56392;51.082;17.080;2022-07-29T04:35:35;15.40;65.70
69281;SHT31;56392;51.082;17.080;2022-07-29T04:40:38;15.72;64.47
69281;SHT31;56392;51.082;17.080;2022-07-29T04:45:40;16.09;64.05
69281;SHT31;56392;51.082;17.080;2022-07-29T04:50:44;16.50;63.04
69281;SHT31;56392;51.082;17.080;2022-07-29T04:55:47;16.92;61.43
69281;SHT31;56392;51.082;17.080;2022-07-29T05:00:49;17.43;60.08
69281;SHT31;56392;51.082;17.080;2022-07-29T05:05:53;17.94;59.19
69281;SHT31;56392;51.082;17.080;2022-07-29T05:10:56;18.48;57.07
69281;SHT31;56392;51.082;17.080;2022-07-29T05:15:59;19.12;55.21
69281;SHT31;56392;51.082;17.080;2022-07-29T05:21:02;19.57;53.52
69281;SHT31;56392;51.082;17.080;2022-07-29T05:26:05;19.63;53.39
69281;SHT31;56392;51.082;17.080;2022-07-29T05:31:07;19.41;53.25
69281;SHT31;56392;51.082;17.080;2022-07-29T05:36:12;19.04;53.90
69281;SHT31;56392;51.082;17.080;2022-07-29T05:41:14;19.16;55.22
69281;SHT31;56392;51.082;17.080;2022-07-29T05:46:18;19.43;54.34
69281;SHT31;56392;51.082;17.080;2022-07-29T05:51:22;19.54;53.90
69281;SHT31;56392;51.082;17.080;2022-07-29T05:56:24;19.61;54.76
69281;SHT31;56392;51.082;17.080;2022-07-29T06:01:27;20.14;54.24
69281;SHT31;56392;51.082;17.080;2022-07-29T06:06:31;20.25;54.20
69281;SHT31;56392;51.082;17.080;2022-07-29T06:11:33;20.40;53.63
69281;SHT31;56392;51.082;17.080;2022-07-29T06:16:36;21.11;51.86
69281;SHT31;56392;51.082;17.080;2022-07-29T06:21:43;22.12;50.28
69281;SHT31;56392;51.082;17.080;2022-07-29T06:26:46;22.65;47.83
69281;SHT31;56392;51.082;17.080;2022-07-29T06:31:48;23.15;45.79
69281;SHT31;56392;51.082;17.080;2022-07-29T06:36:52;23.62;45.22
69281;SHT31;56392;51.082;17.080;2022-07-29T06:41:56;23.43;45.22
69281;SHT31;56392;51.082;17.080;2022-07-29T06:46:59;23.38;45.49
69281;SHT31;56392;51.082;17.080;2022-07-29T06:52:03;23.71;43.69
69281;SHT31;56392;51.082;17.080;2022-07-29T06:57:06;24.37;43.62
69281;SHT31;56392;51.082;17.080;2022-07-29T07:02:08;24.39;40.99
69281;SHT31;56392;51.082;17.080;2022-07-29T07:07:13;24.29;42.65
69281;SHT31;56392;51.082;17.080;2022-07-29T07:12:16;23.98;41.74
69281;SHT31;56392;51.082;17.080;2022-07-29T07:17:19;24.34;43.04
69281;SHT31;56392;51.082;17.080;2022-07-29T07:22:23;25.31;41.92
69281;SHT31;56392;51.082;17.080;2022-07-29T07:27:25;26.32;38.55
69281;SHT31;56392;51.082;17.080;2022-07-29T07:32:29;26.57;38.41
69281;SHT31;56392;51.082;17.080;2022-07-29T07:37:33;26.46;38.18
69281;SHT31;56392;51.082;17.080;2022-07-29T07:42:36;26.38;39.33
69281;SHT31;56392;51.082;17.080;2022-07-29T07:47:39;26.01;39.44
69281;SHT31;56392;51.082;17.080;2022-07-29T07:52:51;26.12;39.08
69281;SHT31;56392;51.082;17.080;2022-07-29T07:57:54;26.21;40.13
69281;SHT31;56392;51.082;17.080;2022-07-29T08:02:57;26.09;40.91
69281;SHT31;56392;51.082;17.080;2022-07-29T08:08:01;25.81;40.40
69281;SHT31;56392;51.082;17.080;2022-07-29T08:13:04;25.91;40.15
69281;SHT31;56392;51.082;17.080;2022-07-29T08:18:07;26.36;39.79
69281;SHT31;56392;51.082;17.080;2022-07-29T08:23:11;26.77;38.88
69281;SHT31;56392;51.082;17.080;2022-07-29T08:28:13;26.76;38.92
69281;SHT31;56392;51.082;17.080;2022-07-29T08:33:16;26.64;39.40
69281;SHT31;56392;51.082;17.080;2022-07-29T08:38:20;26.82;39.01
69281;SHT31;56392;51.082;17.080;2022-07-29T08:43:24;27.12;39.42
69281;SHT31;56392;51.082;17.080;2022-07-29T08:48:27;26.86;39.44
69281;SHT31;56392;51.082;17.080;2022-07-29T08:53:31;26.97;39.83
69281;SHT31;56392;51.082;17.080;2022-07-29T08:58:34;27.30;38.25
69281;SHT31;56392;51.082;17.080;2022-07-29T09:03:38;28.16;37.86
69281;SHT31;56392;51.082;17.080;2022-07-29T09:08:44;29.19;35.92
69281;SHT31;56392;51.082;17.080;2022-07-29T09:13:46;30.65;34.30
69281;SHT31;56392;51.082;17.080;2022-07-29T09:18:50;30.62;32.96
69281;SHT31;56392;51.082;17.080;2022-07-29T09:24:04;31.40;31.97
69281;SHT31;56392;51.082;17.080;2022-07-29T09:29:09;30.99;32.28
69281;SHT31;56392;51.082;17.080;2022-07-29T09:34:15;30.18;33.60
69281;SHT31;56392;51.082;17.080;2022-07-29T09:39:28;28.47;36.28
69281;SHT31;56392;51.082;17.080;2022-07-29T09:44:42;28.21;37.78
69281;SHT31;56392;51.082;17.080;2022-07-29T09:49:55;27.88;39.58
69281;SHT31;56392;51.082;17.080;2022-07-29T09:55:06;27.15;38.96
69281;SHT31;56392;51.082;17.080;2022-07-29T10:00:11;27.15;39.57
69281;SHT31;56392;51.082;17.080;2022-07-29T10:05:19;27.24;39.49
69281;SHT31;56392;51.082;17.080;2022-07-29T10:10:25;27.15;39.36
69281;SHT31;56392;51.082;17.080;2022-07-29T10:15:29;27.06;39.65
69281;SHT31;56392;51.082;17.080;2022-07-29T10:20:34;26.94;39.46
69281;SHT31;56392;51.082;17.080;2022-07-29T10:25:38;26.98;40.31
69281;SHT31;56392;51.082;17.080;2022-07-29T10:30:41;27.04;39.31
69281;SHT31;56392;51.082;17.080;2022-07-29T10:36:04;27.96;38.73
69281;SHT31;56392;51.082;17.080;2022-07-29T10:41:28;28.37;36.94
69281;SHT31;56392;51.082;17.080;2022-07-29T10:46:37;27.85;37.78
69281;SHT31;56392;51.082;17.080;2022-07-29T10:51:58;29.39;36.47
69281;SHT31;56392;51.082;17.080;2022-07-29T10:57:18;28.30;37.32
69281;SHT31;56392;51.082;17.080;2022-07-29T11:02:43;28.79;36.98
69281;SHT31;56392;51.082;17.080;2022-07-29T11:08:17;27.73;37.58
69281;SHT31;56392;51.082;17.080;2022-07-29T11:19:21;27.92;37.87
69281;SHT31;56392;51.082;17.080;2022-07-29T11:24:25;27.93;37.64
69281;SHT31;56392;51.082;17.080;2022-07-29T11:29:31;28.20;37.37
69281;SHT31;56392;51.082;17.080;2022-07-29T11:34:35;28.17;37.85
69281;SHT31;56392;51.082;17.080;2022-07-29T11:39:43;27.84;37.70
69281;SHT31;56392;51.082;17.080;2022-07-29T11:44:55;27.96;38.00
69281;SHT31;56392;51.082;17.080;2022-07-29T11:50:01;27.96;37.17
69281;SHT31;56392;51.082;17.080;2022-07-29T11:55:05;27.65;37.67
69281;SHT31;56392;51.082;17.080;2022-07-29T12:00:10;27.75;37.94
69281;SHT31;56392;51.082;17.080;2022-07-29T12:05:15;27.93;37.79
69281;SHT31;56392;51.082;17.080;2022-07-29T12:10:17;27.79;38.00
69281;SHT31;56392;51.082;17.080;2022-07-29T12:15:20;27.79;38.78
69281;SHT31;56392;51.082;17.080;2022-07-29T12:20:28;28.05;38.53
69281;SHT31;56392;51.082;17.080;2022-07-29T12:25:33;28.05;38.22
69281;SHT31;56392;51.082;17.080;2022-07-29T12:30:38;27.95;38.44
69281;SHT31;56392;51.082;17.080;2022-07-29T12:35:44;27.34;38.75
69281;SHT31;56392;51.082;17.080;2022-07-29T12:40:48;27.18;39.99
69281;SHT31;56392;51.082;17.080;2022-07-29T12:45:53;27.28;39.52
69281;SHT31;56392;51.082;17.080;2022-07-29T12:51:00;27.37;38.98
69281;SHT31;56392;51.082;17.080;2022-07-29T12:56:04;27.54;38.70
69281;SHT31;56392;51.082;17.080;2022-07-29T13:01:09;27.70;38.81
69281;SHT31;56392;51.082;17.080;2022-07-29T13:06:31;27.69;38.46
69281;SHT31;56392;51.082;17.080;2022-07-29T13:11:36;28.02;38.27
69281;SHT31;56392;51.082;17.080;2022-07-29T13:17:01;27.92;38.34
69281;SHT31;56392;51.082;17.080;2022-07-29T13:22:06;27.81;38.75
69281;SHT31;56392;51.082;17.080;2022-07-29T13:27:09;27.82;38.95
69281;SHT31;56392;51.082;17.080;2022-07-29T13:32:12;27.68;39.40
69281;SHT31;56392;51.082;17.080;2022-07-29T13:37:16;27.57;39.19
69281;SHT31;56392;51.082;17.080;2022-07-29T13:42:19;27.41;39.45
69281;SHT31;56392;51.082;17.080;2022-07-29T13:47:22;27.55;39.24
69281;SHT31;56392;51.082;17.080;2022-07-29T13:52:27;27.66;39.46
69281;SHT31;56392;51.082;17.080;2022-07-29T13:57:30;27.85;39.12
69281;SHT31;56392;51.082;17.080;2022-07-29T14:02:33;27.76;39.33
69281;SHT31;56392;51.082;17.080;2022-07-29T14:07:37;27.89;40.16
69281;SHT31;56392;51.082;17.080;2022-07-29T14:12:40;27.85;40.57
69281;SHT31;56392;51.082;17.080;2022-07-29T14:17:44;27.76;40.32
69281;SHT31;56392;51.082;17.080;2022-07-29T14:22:48;27.72;41.03
69281;SHT31;56392;51.082;17.080;2022-07-29T14:27:50;27.52;40.97
69281;SHT31;56392;51.082;17.080;2022-07-29T14:32:54;27.42;40.67
69281;SHT31;56392;51.082;17.080;2022-07-29T14:37:58;27.35;40.55
69281;SHT31;56392;51.082;17.080;2022-07-29T14:43:01;27.37;41.00
69281;SHT31;56392;51.082;17.080;2022-07-29T14:48:05;27.04;41.07
69281;SHT31;56392;51.082;17.080;2022-07-29T14:53:08;26.94;41.45
69281;SHT31;56392;51.082;17.080;2022-07-29T14:58:13;27.00;41.31
69281;SHT31;56392;51.082;17.080;2022-07-29T15:03:16;27.03;41.30
69281;SHT31;56392;51.082;17.080;2022-07-29T15:08:20;27.03;41.26
69281;SHT31;56392;51.082;17.080;2022-07-29T15:13:24;26.84;41.58
69281;SHT31;56392;51.082;17.080;2022-07-29T15:18:26;26.53;42.38
69281;SHT31;56392;51.082;17.080;2022-07-29T15:23:30;26.59;42.67
69281;SHT31;56392;51.082;17.080;2022-07-29T15:28:33;26.59;42.52
69281;SHT31;56392;51.082;17.080;2022-07-29T15:33:36;26.60;42.57
69281;SHT31;56392;51.082;17.080;2022-07-29T15:38:40;26.61;42.89
69281;SHT31;56392;51.082;17.080;2022-07-29T15:43:43;26.59;42.55
69281;SHT31;56392;51.082;17.080;2022-07-29T15:48:46;26.64;42.49
69281;SHT31;56392;51.082;17.080;2022-07-29T15:53:50;26.53;42.89
69281;SHT31;56392;51.082;17.080;2022-07-29T15:58:53;26.47;43.14
69281;SHT31;56392;51.082;17.080;2022-07-29T16:03:56;26.52;42.80
69281;SHT31;56392;51.082;17.080;2022-07-29T16:09:01;26.38;43.57
69281;SHT31;56392;51.082;17.080;2022-07-29T16:14:04;26.28;43.66
69281;SHT31;56392;51.082;17.080;2022-07-29T16:19:06;26.14;43.82
69281;SHT31;56392;51.082;17.080;2022-07-29T16:24:11;26.28;43.99
69281;SHT31;56392;51.082;17.080;2022-07-29T16:29:14;26.36;45.69
69281;SHT31;56392;51.082;17.080;2022-07-29T16:34:18;26.26;47.33
69281;SHT31;56392;51.082;17.080;2022-07-29T16:39:22;26.21;47.71
69281;SHT31;56392;51.082;17.080;2022-07-29T16:44:24;26.21;47.50
69281;SHT31;56392;51.082;17.080;2022-07-29T16:49:27;26.06;48.24
69281;SHT31;56392;51.082;17.080;2022-07-29T16:54:31;25.98;48.89
69281;SHT31;56392;51.082;17.080;2022-07-29T16:59:34;25.91;48.82
69281;SHT31;56392;51.082;17.080;2022-07-29T17:04:36;25.82;49.02
69281;SHT31;56392;51.082;17.080;2022-07-29T17:09:40;25.75;49.20
69281;SHT31;56392;51.082;17.080;2022-07-29T17:14:43;25.60;49.48
69281;SHT31;56392;51.082;17.080;2022-07-29T17:19:45;25.48;49.82
69281;SHT31;56392;51.082;17.080;2022-07-29T17:24:49;25.44;50.03
69281;SHT31;56392;51.082;17.080;2022-07-29T17:29:52;25.36;50.24
69281;SHT31;56392;51.082;17.080;2022-07-29T17:34:55;25.26;50.60
69281;SHT31;56392;51.082;17.080;2022-07-29T17:39:58;25.23;51.11
69281;SHT31;56392;51.082;17.080;2022-07-29T17:45:01;25.13;51.08
69281;SHT31;56392;51.082;17.080;2022-07-29T17:50:04;25.07;51.70
69281;SHT31;56392;51.082;17.080;2022-07-29T17:55:08;25.00;51.79
69281;SHT31;56392;51.082;17.080;2022-07-29T18:00:14;24.92;52.06
69281;SHT31;56392;51.082;17.080;2022-07-29T18:05:17;24.83;52.28
69281;SHT31;56392;51.082;17.080;2022-07-29T18:10:21;24.71;52.56
69281;SHT31;56392;51.082;17.080;2022-07-29T18:15:23;24.68;52.78
69281;SHT31;56392;51.082;17.080;2022-07-29T18:20:26;24.64;53.08
69281;SHT31;56392;51.082;17.080;2022-07-29T18:25:30;24.49;53.36
69281;SHT31;56392;51.082;17.080;2022-07-29T18:30:33;24.41;53.72
69281;SHT31;56392;51.082;17.080;2022-07-29T18:35:37;24.37;53.73
69281;SHT31;56392;51.082;17.080;2022-07-29T18:40:41;24.31;54.02
69281;SHT31;56392;51.082;17.080;2022-07-29T18:45:45;24.25;55.12
69281;SHT31;56392;51.082;17.080;2022-07-29T18:50:49;24.04;55.52
69281;SHT31;56392;51.082;17.080;2022-07-29T18:55:53;23.87;56.16
69281;SHT31;56392;51.082;17.080;2022-07-29T19:00:57;23.74;57.18
69281;SHT31;56392;51.082;17.080;2022-07-29T19:06:00;23.49;57.96
69281;SHT31;56392;51.082;17.080;2022-07-29T19:11:04;23.27;58.59
69281;SHT31;56392;51.082;17.080;2022-07-29T19:16:07;23.19;59.23
69281;SHT31;56392;51.082;17.080;2022-07-29T19:21:13;23.08;60.06
69281;SHT31;56392;51.082;17.080;2022-07-29T19:26:18;23.09;59.78
69281;SHT31;56392;51.082;17.080;2022-07-29T19:31:21;22.90;60.65
69281;SHT31;56392;51.082;17.080;2022-07-29T19:36:24;22.68;61.69
69281;SHT31;56392;51.082;17.080;2022-07-29T19:41:29;22.44;63.32
69281;SHT31;56392;51.082;17.080;2022-07-29T19:46:31;22.24;62.76
69281;SHT31;56392;51.082;17.080;2022-07-29T19:51:34;22.33;62.16
69281;SHT31;56392;51.082;17.080;2022-07-29T19:56:38;22.44;61.87
69281;SHT31;56392;51.082;17.080;2022-07-29T20:01:41;22.34;62.45
69281;SHT31;56392;51.082;17.080;2022-07-29T20:06:44;22.23;62.75
69281;SHT31;56392;51.082;17.080;2022-07-29T20:11:51;22.30;62.43
69281;SHT31;56392;51.082;17.080;2022-07-29T20:16:53;22.17;62.97
69281;SHT31;56392;51.082;17.080;2022-07-29T20:21:56;22.14;62.59
69281;SHT31;56392;51.082;17.080;2022-07-29T20:27:01;22.21;62.28
69281;SHT31;56392;51.082;17.080;2022-07-29T20:32:03;22.21;62.21
69281;SHT31;56392;51.082;17.080;2022-07-29T20:37:06;22.20;62.58
69281;SHT31;56392;51.082;17.080;2022-07-29T20:42:12;22.13;63.57
69281;SHT31;56392;51.082;17.080;2022-07-29T20:47:14;21.93;64.61
69281;SHT31;56392;51.082;17.080;2022-07-29T20:52:17;21.74;65.50
69281;SHT31;56392;51.082;17.080;2022-07-29T20:57:23;21.54;66.75
69281;SHT31;56392;51.082;17.080;2022-07-29T21:02:25;21.44;67.13
69281;SHT31;56392;51.082;17.080;2022-07-29T21:07:28;21.38;66.73
69281;SHT31;56392;51.082;17.080;2022-07-29T21:12:32;21.35;67.00
69281;SHT31;56392;51.082;17.080;2022-07-29T21:17:34;21.34;67.33
69281;SHT31;56392;51.082;17.080;2022-07-29T21:22:40;21.24;67.52
69281;SHT31;56392;51.082;17.080;2022-07-29T21:27:44;21.07;68.56
69281;SHT31;56392;51.082;17.080;2022-07-29T21:33:05;20.95;69.10
69281;SHT31;56392;51.082;17.080;2022-07-29T21:38:07;20.77;69.34
69281;SHT31;56392;51.082;17.080;2022-07-29T21:43:12;20.57;69.66
69281;SHT31;56392;51.082;17.080;2022-07-29T21:48:15;20.42;70.09
69281;SHT31;56392;51.082;17.080;2022-07-29T21:53:18;20.37;69.80
69281;SHT31;56392;51.082;17.080;2022-07-29T21:58:22;20.30;69.97
69281;SHT31;56392;51.082;17.080;2022-07-29T22:03:24;20.22;70.30
69281;SHT31;56392;51.082;17.080;2022-07-29T22:08:27;20.12;70.73
69281;SHT31;56392;51.082;17.080;2022-07-29T22:13:31;20.04;70.56
69281;SHT31;56392;51.082;17.080;2022-07-29T22:18:34;20.01;70.60
69281;SHT31;56392;51.082;17.080;2022-07-29T22:23:36;20.02;69.85
69281;SHT31;56392;51.082;17.080;2022-07-29T22:28:40;20.14;68.55
69281;SHT31;56392;51.082;17.080;2022-07-29T22:33:43;20.26;67.64
69281;SHT31;56392;51.082;17.080;2022-07-29T22:38:45;20.24;67.01
69281;SHT31;56392;51.082;17.080;2022-07-29T22:43:49;20.25;66.04
69281;SHT31;56392;51.082;17.080;2022-07-29T22:48:52;20.26;65.35
69281;SHT31;56392;51.082;17.080;2022-07-29T22:53:54;20.19;65.51
69281;SHT31;56392;51.082;17.080;2022-07-29T22:58:58;20.21;66.09
69281;SHT31;56392;51.082;17.080;2022-07-29T23:04:01;20.05;67.75
69281;SHT31;56392;51.082;17.080;2022-07-29T23:09:04;19.94;68.27
69281;SHT31;56392;51.082;17.080;2022-07-29T23:14:09;19.81;68.35
69281;SHT31;56392;51.082;17.080;2022-07-29T23:19:11;19.84;67.33
69281;SHT31;56392;51.082;17.080;2022-07-29T23:24:14;19.79;67.88
69281;SHT31;56392;51.082;17.080;2022-07-29T23:29:17;19.74;68.14
69281;SHT31;56392;51.082;17.080;2022-07-29T23:34:20;19.67;68.09
69281;SHT31;56392;51.082;17.080;2022-07-29T23:39:23;19.79;64.94
69281;SHT31;56392;51.082;17.080;2022-07-29T23:44:27;19.86;63.73
69281;SHT31;56392;51.082;17.080;2022-07-29T23:49:29;19.84;63.67
69281;SHT31;56392;51.082;17.080;2022-07-29T23:54:32;19.75;66.09
69281;SHT31;56392;51.082;17.080;2022-07-29T23:59:36;19.75;64.36
